createdAt,value
2023-09-24T00:00:31.400Z,1005.11
2023-09-24T00:01:03.236Z,1005.11
2023-09-24T00:01:35.125Z,1005.21
2023-09-24T00:02:07.137Z,1005.21
2023-09-24T00:02:39.263Z,1005.21
2023-09-24T00:03:11.338Z,1005.11
2023-09-24T00:03:43.126Z,1005.11
2023-09-24T00:04:15.125Z,1005.11
2023-09-24T00:04:47.127Z,1005.11
2023-09-24T00:05:19.372Z,1005.21
2023-09-24T00:05:51.050Z,1005.21
2023-09-24T00:06:22.979Z,1005.32
2023-09-24T00:06:55.235Z,1005.32
2023-09-24T00:07:26.890Z,1005.32
2023-09-24T00:07:58.914Z,1005.32
2023-09-24T00:08:31.044Z,1005.32
2023-09-24T00:09:03.025Z,1005.32
2023-09-24T00:09:34.796Z,1005.21
2023-09-24T00:10:06.975Z,1005.21
2023-09-24T00:10:38.904Z,1005.32
2023-09-24T00:11:10.889Z,1005.32
2023-09-24T00:11:42.822Z,1005.32
2023-09-24T00:12:14.794Z,1005.21
2023-09-24T00:12:47.081Z,1005.21
2023-09-24T00:13:18.709Z,1005.21
2023-09-24T00:13:51.249Z,1005.21
2023-09-24T00:14:22.741Z,1005.32
2023-09-24T00:14:54.746Z,1005.32
2023-09-24T00:15:26.812Z,1005.32
2023-09-24T00:15:58.625Z,1005.32
2023-09-24T00:16:30.773Z,1005.32
2023-09-24T00:17:02.459Z,1005.32
2023-09-24T00:17:34.534Z,1005.21
2023-09-24T00:18:06.605Z,1005.21
2023-09-24T00:18:38.607Z,1005.32
2023-09-24T00:19:10.503Z,1005.32
2023-09-24T00:19:42.432Z,1005.32
2023-09-24T00:20:14.606Z,1005.32
2023-09-24T00:20:46.360Z,1005.32
2023-09-24T00:21:18.469Z,1005.21
2023-09-24T00:21:50.497Z,1005.21
2023-09-24T00:22:23.825Z,1005.42
2023-09-24T00:22:54.244Z,1005.42
2023-09-24T00:23:26.383Z,1005.42
2023-09-24T00:23:58.365Z,1005.42
2023-09-24T00:24:30.163Z,1005.32
2023-09-24T00:25:02.408Z,1005.32
2023-09-24T00:25:34.216Z,1005.21
2023-09-24T00:26:06.217Z,1005.21
2023-09-24T00:26:38.122Z,1005.32
2023-09-24T00:27:10.124Z,1005.32
2023-09-24T00:27:42.126Z,1005.32
2023-09-24T00:28:14.174Z,1005.32
2023-09-24T00:28:46.005Z,1005.32
2023-09-24T00:29:18.043Z,1005.32
2023-09-24T00:29:50.050Z,1005.32
2023-09-24T00:30:49.792Z,1005.21
2023-09-24T00:30:53.927Z,1005.21
2023-09-24T00:31:26.001Z,1005.42
2023-09-24T00:31:58.041Z,1005.42
2023-09-24T00:32:29.884Z,1005.42
2023-09-24T00:33:01.931Z,1005.42
2023-09-24T00:33:34.060Z,1005.42
2023-09-24T00:34:05.903Z,1005.42
2023-09-24T00:34:37.755Z,1005.52
2023-09-24T00:35:09.905Z,1005.42
2023-09-24T00:35:41.870Z,1005.42
2023-09-24T00:36:13.626Z,1005.52
2023-09-24T00:36:45.711Z,1005.52
2023-09-24T00:37:17.755Z,1005.52
2023-09-24T00:37:49.739Z,1005.52
2023-09-24T00:38:21.793Z,1005.72
2023-09-24T00:38:53.654Z,1005.72
2023-09-24T00:39:25.628Z,1005.62
2023-09-24T00:39:57.671Z,1005.62
2023-09-24T00:40:29.651Z,1005.52
2023-09-24T00:41:01.549Z,1005.52
2023-09-24T00:41:33.692Z,1005.62
2023-09-24T00:42:05.413Z,1005.62
2023-09-24T00:42:37.471Z,1005.62
2023-09-24T00:43:09.781Z,1005.72
2023-09-24T00:43:41.569Z,1005.72
2023-09-24T00:44:13.317Z,1005.72
2023-09-24T00:44:45.456Z,1005.72
2023-09-24T00:45:29.944Z,1005.72
2023-09-24T00:45:49.281Z,1005.72
2023-09-24T00:46:21.307Z,1005.72
2023-09-24T00:46:53.300Z,1005.72
2023-09-24T00:47:25.414Z,1005.52
2023-09-24T00:47:57.245Z,1005.52
2023-09-24T00:48:29.470Z,1005.72
2023-09-24T00:49:01.218Z,1005.72
2023-09-24T00:49:33.264Z,1005.82
2023-09-24T00:50:05.207Z,1005.82
2023-09-24T00:50:37.161Z,1005.62
2023-09-24T00:51:11.941Z,1005.72
2023-09-24T00:51:41.036Z,1005.72
2023-09-24T00:52:13.066Z,1005.72
2023-09-24T00:52:45.612Z,1005.72
2023-09-24T00:53:17.158Z,1005.52
2023-09-24T00:53:49.231Z,1005.52
2023-09-24T00:54:20.974Z,1005.82
2023-09-24T00:54:52.982Z,1005.82
2023-09-24T00:55:25.174Z,1005.62
2023-09-24T00:55:56.872Z,1005.62
2023-09-24T00:56:28.949Z,1005.72
2023-09-24T00:57:01.229Z,1005.72
2023-09-24T00:57:32.735Z,1005.82
2023-09-24T00:58:04.878Z,1005.82
2023-09-24T00:58:36.833Z,1005.93
2023-09-24T00:59:08.873Z,1005.72
2023-09-24T00:59:40.965Z,1005.72
2023-09-24T01:00:25.358Z,1005.82
2023-09-24T01:00:44.957Z,1005.82
2023-09-24T01:01:16.667Z,1006.03
2023-09-24T01:01:48.709Z,1006.03
2023-09-24T01:02:20.772Z,1005.72
2023-09-24T01:02:52.766Z,1005.72
2023-09-24T01:03:24.653Z,1005.72
2023-09-24T01:03:57.184Z,1005.72
2023-09-24T01:04:28.713Z,1005.72
2023-09-24T01:05:00.955Z,1005.72
2023-09-24T01:05:32.510Z,1005.72
2023-09-24T01:06:04.495Z,1005.72
2023-09-24T01:06:36.520Z,1005.82
2023-09-24T01:07:08.348Z,1005.82
2023-09-24T01:07:40.441Z,1005.72
2023-09-24T01:08:12.395Z,1005.62
2023-09-24T01:08:44.535Z,1005.62
2023-09-24T01:09:16.278Z,1005.72
2023-09-24T01:09:48.334Z,1005.72
2023-09-24T01:10:20.586Z,1005.62
2023-09-24T01:10:52.376Z,1005.62
2023-09-24T01:11:24.236Z,1005.82
2023-09-24T01:11:56.301Z,1005.82
2023-09-24T01:12:28.345Z,1005.72
2023-09-24T01:13:00.136Z,1005.72
2023-09-24T01:13:32.135Z,1005.62
2023-09-24T01:14:04.185Z,1005.62
2023-09-24T01:14:36.213Z,1005.72
2023-09-24T01:15:20.549Z,1005.72
2023-09-24T01:15:40.164Z,1005.82
2023-09-24T01:16:12.151Z,1005.72
2023-09-24T01:16:44.211Z,1005.72
2023-09-24T01:17:16.000Z,1005.82
2023-09-24T01:17:48.087Z,1005.82
2023-09-24T01:18:20.166Z,1005.62
2023-09-24T01:18:52.051Z,1005.62
2023-09-24T01:19:23.896Z,1005.62
2023-09-24T01:19:55.917Z,1005.62
2023-09-24T01:20:28.237Z,1005.72
2023-09-24T01:20:59.961Z,1005.72
2023-09-24T01:21:32.050Z,1005.62
2023-09-24T01:22:03.877Z,1005.62
2023-09-24T01:22:35.903Z,1005.72
2023-09-24T01:23:07.706Z,1005.72
2023-09-24T01:23:39.828Z,1005.93
2023-09-24T01:24:11.829Z,1005.82
2023-09-24T01:24:43.795Z,1005.82
2023-09-24T01:25:15.814Z,1005.72
2023-09-24T01:25:47.693Z,1005.72
2023-09-24T01:26:19.915Z,1005.93
2023-09-24T01:26:51.570Z,1005.93
2023-09-24T01:27:23.615Z,1005.93
2023-09-24T01:27:55.624Z,1005.93
2023-09-24T01:28:27.635Z,1006.03
2023-09-24T01:28:59.480Z,1006.03
2023-09-24T01:29:31.533Z,1005.93
2023-09-24T01:30:16.119Z,1005.93
2023-09-24T01:30:35.381Z,1005.82
2023-09-24T01:31:07.437Z,1005.82
2023-09-24T01:31:39.500Z,1006.13
2023-09-24T01:32:11.287Z,1006.03
2023-09-24T01:32:43.450Z,1006.03
2023-09-24T01:33:15.534Z,1006.13
2023-09-24T01:33:47.694Z,1006.13
2023-09-24T01:34:19.304Z,1005.93
2023-09-24T01:34:51.265Z,1005.93
2023-09-24T01:35:23.542Z,1006.03
2023-09-24T01:35:55.335Z,1006.03
2023-09-24T01:36:27.178Z,1005.93
2023-09-24T01:36:59.190Z,1005.93
2023-09-24T01:37:31.222Z,1005.93
2023-09-24T01:38:03.060Z,1005.93
2023-09-24T01:38:35.288Z,1006.03
2023-09-24T01:39:07.253Z,1006.03
2023-09-24T01:39:39.175Z,1006.23
2023-09-24T01:40:11.090Z,1006.03
2023-09-24T01:40:43.156Z,1006.03
2023-09-24T01:41:15.079Z,1006.13
2023-09-24T01:41:47.161Z,1006.13
2023-09-24T01:42:18.948Z,1006.03
2023-09-24T01:42:50.959Z,1006.03
2023-09-24T01:43:22.991Z,1005.93
2023-09-24T01:43:54.801Z,1005.93
2023-09-24T01:44:26.852Z,1005.93
2023-09-24T01:44:58.906Z,1005.93
2023-09-24T01:45:43.396Z,1006.03
2023-09-24T01:46:02.750Z,1006.03
2023-09-24T01:46:34.933Z,1006.03
2023-09-24T01:47:06.796Z,1006.03
2023-09-24T01:47:39.089Z,1006.13
2023-09-24T01:48:10.835Z,1005.93
2023-09-24T01:48:43.268Z,1005.93
2023-09-24T01:49:14.761Z,1006.13
2023-09-24T01:49:46.753Z,1006.13
2023-09-24T01:50:18.767Z,1006.03
2023-09-24T01:50:50.842Z,1006.03
2023-09-24T01:51:22.672Z,1006.13
2023-09-24T01:51:54.496Z,1006.13
2023-09-24T01:52:26.568Z,1005.82
2023-09-24T01:52:58.559Z,1005.82
2023-09-24T01:53:30.770Z,1006.03
2023-09-24T01:54:02.501Z,1006.03
2023-09-24T01:54:34.447Z,1006.13
2023-09-24T01:55:06.619Z,1006.13
2023-09-24T01:55:38.305Z,1006.13
2023-09-24T01:56:10.674Z,1006.03
2023-09-24T01:56:49.346Z,1006.03
2023-09-24T01:57:14.458Z,1005.93
2023-09-24T01:57:46.246Z,1005.93
2023-09-24T01:58:19.697Z,1006.13
2023-09-24T01:58:50.443Z,1006.13
2023-09-24T01:59:23.302Z,1005.93
2023-09-24T01:59:54.221Z,1005.93
2023-09-24T02:00:39.726Z,1006.03
2023-09-24T02:00:58.353Z,1006.03
2023-09-24T02:01:31.002Z,1006.03
2023-09-24T02:02:02.148Z,1006.03
2023-09-24T02:02:35.519Z,1005.93
2023-09-24T02:03:06.209Z,1005.93
2023-09-24T02:03:39.009Z,1005.93
2023-09-24T02:04:10.032Z,1005.93
2023-09-24T02:04:43.007Z,1005.93
2023-09-24T02:05:14.221Z,1005.82
2023-09-24T02:05:46.852Z,1005.82
2023-09-24T02:06:17.952Z,1005.93
2023-09-24T02:06:51.016Z,1005.93
2023-09-24T02:07:22.123Z,1006.03
2023-09-24T02:07:54.788Z,1006.03
2023-09-24T02:08:25.914Z,1006.13
2023-09-24T02:08:58.958Z,1006.13
2023-09-24T02:09:29.742Z,1005.93
2023-09-24T02:10:02.834Z,1005.93
2023-09-24T02:10:33.823Z,1006.03
2023-09-24T02:11:06.583Z,1006.03
2023-09-24T02:11:37.761Z,1006.03
2023-09-24T02:12:10.858Z,1006.13
2023-09-24T02:12:41.816Z,1006.13
2023-09-24T02:13:14.641Z,1006.03
2023-09-24T02:13:45.749Z,1006.03
2023-09-24T02:14:18.714Z,1006.13
2023-09-24T02:14:49.529Z,1006.13
2023-09-24T02:15:34.977Z,1006.03
2023-09-24T02:15:53.574Z,1006.03
2023-09-24T02:16:26.573Z,1006.13
2023-09-24T02:16:57.736Z,1006.13
2023-09-24T02:17:30.492Z,1006.13
2023-09-24T02:18:01.587Z,1006.13
2023-09-24T02:18:35.370Z,1006.03
2023-09-24T02:19:05.340Z,1006.03
2023-09-24T02:19:38.292Z,1006.23
2023-09-24T02:20:09.834Z,1006.13
2023-09-24T02:20:42.232Z,1006.13
2023-09-24T02:21:13.327Z,1006.13
2023-09-24T02:21:46.215Z,1006.13
2023-09-24T02:22:17.369Z,1006.13
2023-09-24T02:22:50.089Z,1006.13
2023-09-24T02:23:21.230Z,1006.03
2023-09-24T02:23:54.159Z,1006.03
2023-09-24T02:24:25.276Z,1006.23
2023-09-24T02:24:57.911Z,1006.23
2023-09-24T02:25:29.293Z,1006.13
2023-09-24T02:26:02.083Z,1006.13
2023-09-24T02:26:33.083Z,1006.23
2023-09-24T02:27:05.965Z,1006.23
2023-09-24T02:27:37.084Z,1006.13
2023-09-24T02:28:10.230Z,1006.33
2023-09-24T02:28:40.976Z,1006.33
2023-09-24T02:29:13.901Z,1006.13
2023-09-24T02:29:45.108Z,1006.13
2023-09-24T02:30:31.644Z,1006.13
2023-09-24T02:30:49.415Z,1006.13
2023-09-24T02:31:21.826Z,1006.23
2023-09-24T02:31:52.956Z,1006.23
2023-09-24T02:32:25.687Z,1006.23
2023-09-24T02:32:56.963Z,1006.23
2023-09-24T02:33:29.922Z,1006.23
2023-09-24T02:34:00.935Z,1006.23
2023-09-24T02:34:33.625Z,1006.23
2023-09-24T02:35:05.252Z,1006.23
2023-09-24T02:35:37.739Z,1006.23
2023-09-24T02:36:09.045Z,1006.33
2023-09-24T02:36:41.753Z,1006.33
2023-09-24T02:37:12.671Z,1006.33
2023-09-24T02:37:45.598Z,1006.33
2023-09-24T02:38:16.527Z,1006.33
2023-09-24T02:38:49.603Z,1006.33
2023-09-24T02:39:21.287Z,1006.23
2023-09-24T02:39:53.521Z,1006.23
2023-09-24T02:40:24.594Z,1006.23
2023-09-24T02:40:57.368Z,1006.23
2023-09-24T02:41:28.618Z,1006.33
2023-09-24T02:42:01.498Z,1006.33
2023-09-24T02:42:32.364Z,1006.03
2023-09-24T02:43:05.415Z,1006.03
2023-09-24T02:43:36.461Z,1006.13
2023-09-24T02:44:10.173Z,1006.13
2023-09-24T02:44:40.468Z,1006.13
2023-09-24T02:45:25.707Z,1006.23
2023-09-24T02:45:44.394Z,1006.23
2023-09-24T02:46:19.150Z,1006.33
2023-09-24T02:46:48.242Z,1006.33
2023-09-24T02:47:22.490Z,1006.13
2023-09-24T02:47:52.372Z,1006.13
2023-09-24T02:48:25.234Z,1006.33
2023-09-24T02:48:56.157Z,1006.33
2023-09-24T02:49:29.299Z,1006.13
2023-09-24T02:50:00.043Z,1006.13
2023-09-24T02:50:33.117Z,1006.33
2023-09-24T02:51:04.170Z,1006.33
2023-09-24T02:51:37.053Z,1006.33
2023-09-24T02:52:08.020Z,1006.33
2023-09-24T02:52:40.957Z,1006.33
2023-09-24T02:53:12.084Z,1006.23
2023-09-24T02:53:45.114Z,1006.23
2023-09-24T02:54:15.869Z,1006.33
2023-09-24T02:54:49.646Z,1006.33
2023-09-24T02:55:20.043Z,1006.33
2023-09-24T02:55:52.701Z,1006.33
2023-09-24T02:56:23.882Z,1006.23
2023-09-24T02:56:57.794Z,1006.23
2023-09-24T02:57:27.972Z,1006.33
2023-09-24T02:58:00.844Z,1006.33
2023-09-24T02:58:31.743Z,1006.43
2023-09-24T02:59:05.599Z,1006.43
2023-09-24T02:59:35.841Z,1006.23
2023-09-24T03:00:21.360Z,1006.23
2023-09-24T03:00:39.718Z,1006.33
2023-09-24T03:01:12.709Z,1006.33
2023-09-24T03:01:43.601Z,1006.33
2023-09-24T03:02:16.475Z,1006.33
2023-09-24T03:02:47.682Z,1006.33
2023-09-24T03:03:20.852Z,1006.33
2023-09-24T03:03:51.882Z,1006.33
2023-09-24T03:04:24.518Z,1006.53
2023-09-24T03:04:55.542Z,1006.53
2023-09-24T03:05:28.486Z,1006.53
2023-09-24T03:05:59.452Z,1006.53
2023-09-24T03:06:32.425Z,1006.53
2023-09-24T03:07:03.473Z,1006.53
2023-09-24T03:07:36.303Z,1006.43
2023-09-24T03:08:07.471Z,1006.43
2023-09-24T03:08:40.572Z,1006.33
2023-09-24T03:09:11.429Z,1006.64
2023-09-24T03:09:44.139Z,1006.64
2023-09-24T03:10:15.440Z,1006.53
2023-09-24T03:10:48.212Z,1006.53
2023-09-24T03:11:19.445Z,1006.64
2023-09-24T03:11:54.197Z,1006.64
2023-09-24T03:12:23.216Z,1006.53
2023-09-24T03:12:56.129Z,1006.53
2023-09-24T03:13:27.077Z,1006.53
2023-09-24T03:14:00.080Z,1006.53
2023-09-24T03:14:31.124Z,1006.64
2023-09-24T03:15:16.510Z,1006.64
2023-09-24T03:15:35.011Z,1006.43
2023-09-24T03:16:07.967Z,1006.43
2023-09-24T03:16:39.116Z,1006.64
2023-09-24T03:17:11.830Z,1006.64
2023-09-24T03:17:43.122Z,1006.64
2023-09-24T03:18:16.005Z,1006.64
2023-09-24T03:18:47.045Z,1006.64
2023-09-24T03:19:19.701Z,1006.64
2023-09-24T03:19:50.909Z,1006.64
2023-09-24T03:20:24.175Z,1006.53
2023-09-24T03:20:54.923Z,1006.53
2023-09-24T03:21:27.672Z,1006.84
2023-09-24T03:21:58.775Z,1006.84
2023-09-24T03:22:31.709Z,1006.53
2023-09-24T03:23:02.739Z,1006.53
2023-09-24T03:23:36.829Z,1006.64
2023-09-24T03:24:06.735Z,1006.64
2023-09-24T03:24:39.679Z,1006.74
2023-09-24T03:25:10.879Z,1006.74
2023-09-24T03:25:43.503Z,1006.74
2023-09-24T03:26:14.643Z,1006.74
2023-09-24T03:26:47.609Z,1006.74
2023-09-24T03:27:18.516Z,1006.84
2023-09-24T03:27:51.567Z,1006.84
2023-09-24T03:28:22.574Z,1006.84
2023-09-24T03:28:55.383Z,1006.84
2023-09-24T03:29:26.431Z,1007.01
2023-09-24T03:29:59.400Z,1007.01
2023-09-24T03:30:43.025Z,1006.74
2023-09-24T03:31:03.217Z,1006.74
2023-09-24T03:31:34.402Z,1006.84
2023-09-24T03:32:07.393Z,1006.84
2023-09-24T03:32:38.424Z,1006.84
2023-09-24T03:33:11.362Z,1006.84
2023-09-24T03:33:42.356Z,1006.84
2023-09-24T03:34:15.345Z,1006.84
2023-09-24T03:34:46.153Z,1006.84
2023-09-24T03:35:19.241Z,1006.94
2023-09-24T03:35:50.301Z,1006.94
2023-09-24T03:36:23.283Z,1006.84
2023-09-24T03:36:54.094Z,1006.84
2023-09-24T03:37:27.043Z,1006.94
2023-09-24T03:37:58.339Z,1006.94
2023-09-24T03:38:31.586Z,1006.94
2023-09-24T03:39:02.062Z,1006.94
2023-09-24T03:39:36.042Z,1006.74
2023-09-24T03:40:06.182Z,1006.74
2023-09-24T03:40:38.870Z,1006.94
2023-09-24T03:41:10.202Z,1006.84
2023-09-24T03:41:42.891Z,1006.84
2023-09-24T03:42:13.998Z,1006.84
2023-09-24T03:42:46.758Z,1006.84
2023-09-24T03:43:17.851Z,1006.84
2023-09-24T03:43:50.938Z,1006.84
2023-09-24T03:44:21.925Z,1006.94
2023-09-24T03:44:54.734Z,1006.94
2023-09-24T03:45:38.279Z,1006.84
2023-09-24T03:45:59.498Z,1006.84
2023-09-24T03:46:29.664Z,1006.84
2023-09-24T03:47:02.586Z,1006.84
2023-09-24T03:47:33.827Z,1006.74
2023-09-24T03:48:06.910Z,1006.74
2023-09-24T03:48:37.723Z,1007.01
2023-09-24T03:49:11.538Z,1007.01
2023-09-24T03:49:41.646Z,1007.01
2023-09-24T03:50:14.608Z,1007.01
2023-09-24T03:50:45.575Z,1007.01
2023-09-24T03:51:18.481Z,1007.01
2023-09-24T03:51:49.601Z,1007.01
2023-09-24T03:52:22.231Z,1006.94
2023-09-24T03:52:53.672Z,1006.94
2023-09-24T03:53:26.586Z,1006.94
2023-09-24T03:53:57.778Z,1006.94
2023-09-24T03:54:30.151Z,1007.01
2023-09-24T03:55:01.601Z,1007.01
2023-09-24T03:55:34.597Z,1007.01
2023-09-24T03:56:05.246Z,1007.01
2023-09-24T03:56:38.254Z,1007.01
2023-09-24T03:57:09.368Z,1007.11
2023-09-24T03:57:44.245Z,1007.11
2023-09-24T03:58:13.164Z,1007.01
2023-09-24T03:58:46.217Z,1007.01
2023-09-24T03:59:17.227Z,1007.01
2023-09-24T03:59:50.248Z,1007.01
2023-09-24T04:00:33.618Z,1007.21
2023-09-24T04:00:54.057Z,1007.21
2023-09-24T04:01:25.286Z,1007.01
2023-09-24T04:01:57.917Z,1007.01
2023-09-24T04:02:29.118Z,1007.11
2023-09-24T04:03:02.022Z,1007.11
2023-09-24T04:03:33.243Z,1007.21
2023-09-24T04:04:06.050Z,1007.21
2023-09-24T04:04:37.050Z,1007.11
2023-09-24T04:05:10.028Z,1007.11
2023-09-24T04:05:41.170Z,1007.11
2023-09-24T04:06:14.780Z,1007.21
2023-09-24T04:06:44.921Z,1007.21
2023-09-24T04:07:17.844Z,1007.21
2023-09-24T04:07:48.793Z,1007.21
2023-09-24T04:08:21.786Z,1007.21
2023-09-24T04:08:52.830Z,1007.21
2023-09-24T04:09:25.761Z,1007.11
2023-09-24T04:09:56.691Z,1007.11
2023-09-24T04:10:29.733Z,1007.31
2023-09-24T04:11:00.809Z,1007.31
2023-09-24T04:11:33.662Z,1007.21
2023-09-24T04:12:04.634Z,1007.21
2023-09-24T04:12:37.582Z,1007.11
2023-09-24T04:13:08.723Z,1007.21
2023-09-24T04:13:41.549Z,1007.21
2023-09-24T04:14:12.546Z,1007.11
2023-09-24T04:14:46.347Z,1007.11
2023-09-24T04:15:29.525Z,1007.21
2023-09-24T04:15:50.197Z,1007.21
2023-09-24T04:16:20.626Z,1007.21
2023-09-24T04:16:53.422Z,1007.21
2023-09-24T04:17:24.529Z,1007.11
2023-09-24T04:17:57.367Z,1007.11
2023-09-24T04:18:28.618Z,1007.31
2023-09-24T04:19:01.326Z,1007.31
2023-09-24T04:19:32.265Z,1007.21
2023-09-24T04:20:05.315Z,1007.21
2023-09-24T04:20:36.398Z,1007.21
2023-09-24T04:21:09.390Z,1007.21
2023-09-24T04:21:40.225Z,1007.21
2023-09-24T04:22:13.134Z,1007.31
2023-09-24T04:22:44.883Z,1007.31
2023-09-24T04:23:17.090Z,1007.31
2023-09-24T04:23:48.435Z,1007.31
2023-09-24T04:24:21.164Z,1007.31
2023-09-24T04:24:52.202Z,1007.31
2023-09-24T04:25:25.095Z,1007.42
2023-09-24T04:25:56.063Z,1007.42
2023-09-24T04:26:29.055Z,1007.31
2023-09-24T04:27:00.537Z,1007.31
2023-09-24T04:27:32.849Z,1007.31
2023-09-24T04:28:04.000Z,1007.31
2023-09-24T04:28:38.134Z,1007.42
2023-09-24T04:29:08.102Z,1007.42
2023-09-24T04:29:40.901Z,1007.42
2023-09-24T04:30:24.374Z,1007.31
2023-09-24T04:30:44.843Z,1007.31
2023-09-24T04:31:15.774Z,1007.42
2023-09-24T04:31:48.721Z,1007.42
2023-09-24T04:32:19.847Z,1007.11
2023-09-24T04:32:52.914Z,1007.11
2023-09-24T04:33:23.868Z,1007.52
2023-09-24T04:33:58.864Z,1007.52
2023-09-24T04:34:27.861Z,1007.52
2023-09-24T04:35:00.877Z,1007.52
2023-09-24T04:35:31.731Z,1007.62
2023-09-24T04:36:04.723Z,1007.62
2023-09-24T04:36:36.035Z,1007.42
2023-09-24T04:37:08.525Z,1007.42
2023-09-24T04:37:39.566Z,1007.31
2023-09-24T04:38:13.595Z,1007.52
2023-09-24T04:38:43.670Z,1007.52
2023-09-24T04:39:16.364Z,1007.52
2023-09-24T04:39:47.491Z,1007.52
2023-09-24T04:40:20.948Z,1007.62
2023-09-24T04:40:51.359Z,1007.62
2023-09-24T04:41:24.587Z,1007.52
2023-09-24T04:41:55.456Z,1007.52
2023-09-24T04:42:28.380Z,1007.52
2023-09-24T04:42:59.340Z,1007.52
2023-09-24T04:43:32.353Z,1007.52
2023-09-24T04:44:03.372Z,1007.52
2023-09-24T04:44:36.116Z,1007.62
2023-09-24T04:45:19.816Z,1007.62
2023-09-24T04:45:41.266Z,1007.62
2023-09-24T04:46:11.364Z,1007.52
2023-09-24T04:46:44.231Z,1007.52
2023-09-24T04:47:15.184Z,1007.62
2023-09-24T04:47:48.276Z,1007.62
2023-09-24T04:48:19.679Z,1007.52
2023-09-24T04:48:52.216Z,1007.52
2023-09-24T04:49:23.320Z,1007.72
2023-09-24T04:49:56.129Z,1007.72
2023-09-24T04:50:27.302Z,1007.52
2023-09-24T04:50:59.930Z,1007.52
2023-09-24T04:51:31.072Z,1007.62
2023-09-24T04:52:03.974Z,1007.62
2023-09-24T04:52:34.922Z,1007.62
2023-09-24T04:53:07.924Z,1007.62
2023-09-24T04:53:39.111Z,1007.52
2023-09-24T04:54:11.964Z,1007.62
2023-09-24T04:54:42.817Z,1007.62
2023-09-24T04:55:15.963Z,1007.62
2023-09-24T04:55:46.922Z,1007.62
2023-09-24T04:56:19.928Z,1007.52
2023-09-24T04:56:50.877Z,1007.52
2023-09-24T04:57:23.712Z,1007.52
2023-09-24T04:57:54.883Z,1007.52
2023-09-24T04:58:27.664Z,1007.62
2023-09-24T04:58:58.717Z,1007.62
2023-09-24T04:59:33.742Z,1007.62
2023-09-24T05:00:15.305Z,1007.62
2023-09-24T05:00:35.638Z,1007.72
2023-09-24T05:01:06.660Z,1007.72
2023-09-24T05:01:40.583Z,1007.82
2023-09-24T05:02:10.592Z,1007.82
2023-09-24T05:02:44.129Z,1007.82
2023-09-24T05:03:14.609Z,1007.72
2023-09-24T05:03:48.060Z,1007.72
2023-09-24T05:04:18.558Z,1007.82
2023-09-24T05:04:51.443Z,1007.82
2023-09-24T05:05:22.729Z,1007.82
2023-09-24T05:05:55.482Z,1007.82
2023-09-24T05:06:26.383Z,1007.62
2023-09-24T05:06:59.396Z,1007.62
2023-09-24T05:07:30.541Z,1007.82
2023-09-24T05:08:03.155Z,1007.82
2023-09-24T05:08:34.336Z,1007.82
2023-09-24T05:09:07.299Z,1007.82
2023-09-24T05:09:38.369Z,1007.82
2023-09-24T05:10:11.217Z,1007.92
2023-09-24T05:10:42.233Z,1007.92
2023-09-24T05:11:15.219Z,1007.92
2023-09-24T05:11:46.120Z,1007.92
2023-09-24T05:12:19.075Z,1007.92
2023-09-24T05:12:50.196Z,1007.92
2023-09-24T05:13:23.206Z,1007.92
2023-09-24T05:13:54.211Z,1007.92
2023-09-24T05:14:27.012Z,1008.02
2023-09-24T05:14:58.118Z,1008.02
2023-09-24T05:15:43.458Z,1008.02
2023-09-24T05:16:01.928Z,1008.02
2023-09-24T05:16:35.129Z,1008.23
2023-09-24T05:17:06.079Z,1008.23
2023-09-24T05:17:38.839Z,1008.13
2023-09-24T05:18:09.943Z,1008.13
2023-09-24T05:18:42.983Z,1008.13
2023-09-24T05:19:13.923Z,1008.13
2023-09-24T05:19:46.680Z,1008.13
2023-09-24T05:20:17.910Z,1008.13
2023-09-24T05:20:50.848Z,1008.13
2023-09-24T05:21:21.852Z,1007.92
2023-09-24T05:21:54.612Z,1007.92
2023-09-24T05:22:25.756Z,1008.23
2023-09-24T05:22:58.757Z,1008.23
2023-09-24T05:23:29.648Z,1008.13
2023-09-24T05:24:02.814Z,1008.13
2023-09-24T05:24:33.702Z,1008.23
2023-09-24T05:25:07.557Z,1008.23
2023-09-24T05:25:37.508Z,1008.33
2023-09-24T05:26:12.348Z,1008.23
2023-09-24T05:26:41.731Z,1008.23
2023-09-24T05:27:14.525Z,1008.23
2023-09-24T05:27:45.462Z,1008.23
2023-09-24T05:28:18.491Z,1008.33
2023-09-24T05:28:49.549Z,1008.33
2023-09-24T05:29:23.147Z,1008.23
2023-09-24T05:29:53.426Z,1008.23
2023-09-24T05:30:38.842Z,1008.23
2023-09-24T05:30:57.486Z,1008.23
2023-09-24T05:31:30.234Z,1008.23
2023-09-24T05:32:01.309Z,1008.23
2023-09-24T05:32:34.946Z,1008.23
2023-09-24T05:33:05.534Z,1008.23
2023-09-24T05:33:39.272Z,1008.23
2023-09-24T05:34:09.283Z,1008.33
2023-09-24T05:34:42.175Z,1008.33
2023-09-24T05:35:13.189Z,1008.23
2023-09-24T05:35:46.065Z,1008.23
2023-09-24T05:36:17.203Z,1008.33
2023-09-24T05:36:50.130Z,1008.33
2023-09-24T05:37:21.056Z,1008.33
2023-09-24T05:37:53.999Z,1008.33
2023-09-24T05:38:25.118Z,1008.53
2023-09-24T05:38:58.229Z,1008.53
2023-09-24T05:39:28.985Z,1008.43
2023-09-24T05:40:01.976Z,1008.43
2023-09-24T05:40:33.075Z,1008.53
2023-09-24T05:41:05.817Z,1008.53
2023-09-24T05:41:36.987Z,1008.43
2023-09-24T05:42:10.866Z,1008.43
2023-09-24T05:42:41.057Z,1008.43
2023-09-24T05:43:13.802Z,1008.33
2023-09-24T05:43:45.412Z,1008.33
2023-09-24T05:44:17.778Z,1008.53
2023-09-24T05:44:48.968Z,1008.53
2023-09-24T05:45:34.548Z,1008.43
2023-09-24T05:45:52.797Z,1008.43
2023-09-24T05:46:25.823Z,1008.63
2023-09-24T05:46:56.636Z,1008.63
2023-09-24T05:47:29.640Z,1008.43
2023-09-24T05:48:00.956Z,1008.43
2023-09-24T05:48:34.035Z,1008.53
2023-09-24T05:49:04.583Z,1008.53
2023-09-24T05:49:37.455Z,1008.63
2023-09-24T05:50:08.762Z,1008.53
2023-09-24T05:50:41.576Z,1008.53
2023-09-24T05:51:12.507Z,1008.74
2023-09-24T05:51:45.416Z,1008.74
2023-09-24T05:52:16.572Z,1008.63
2023-09-24T05:52:49.303Z,1008.63
2023-09-24T05:53:20.539Z,1008.74
2023-09-24T05:53:56.290Z,1008.74
2023-09-24T05:54:24.479Z,1008.63
2023-09-24T05:54:57.228Z,1008.63
2023-09-24T05:55:28.554Z,1008.53
2023-09-24T05:56:01.264Z,1008.53
2023-09-24T05:56:32.331Z,1008.74
2023-09-24T05:57:05.471Z,1008.74
2023-09-24T05:57:36.295Z,1008.63
2023-09-24T05:58:09.427Z,1008.63
2023-09-24T05:58:40.211Z,1008.74
2023-09-24T05:59:13.176Z,1008.74
2023-09-24T05:59:44.247Z,1008.74
2023-09-24T06:00:29.929Z,1008.74
2023-09-24T06:00:48.092Z,1008.74
2023-09-24T06:01:21.062Z,1008.84
2023-09-24T06:01:52.196Z,1008.84
2023-09-24T06:02:25.979Z,1008.84
2023-09-24T06:02:56.121Z,1008.84
2023-09-24T06:03:29.067Z,1008.74
2023-09-24T06:04:00.264Z,1008.74
2023-09-24T06:04:32.878Z,1008.74
2023-09-24T06:05:04.079Z,1008.74
2023-09-24T06:05:36.942Z,1008.94
2023-09-24T06:06:08.024Z,1008.94
2023-09-24T06:06:41.008Z,1008.84
2023-09-24T06:07:11.866Z,1008.94
2023-09-24T06:07:44.770Z,1008.94
2023-09-24T06:08:15.704Z,1008.84
2023-09-24T06:08:48.852Z,1008.84
2023-09-24T06:09:19.793Z,1008.84
2023-09-24T06:09:52.696Z,1008.84
2023-09-24T06:10:23.804Z,1008.84
2023-09-24T06:10:57.292Z,1008.84
2023-09-24T06:11:27.745Z,1008.84
2023-09-24T06:12:01.561Z,1008.84
2023-09-24T06:12:31.605Z,1008.84
2023-09-24T06:13:04.660Z,1008.84
2023-09-24T06:13:35.676Z,1008.94
2023-09-24T06:14:08.377Z,1008.94
2023-09-24T06:14:39.560Z,1008.94
2023-09-24T06:15:24.888Z,1009.04
2023-09-24T06:15:43.583Z,1009.04
2023-09-24T06:16:16.504Z,1008.94
2023-09-24T06:16:47.463Z,1008.94
2023-09-24T06:17:20.502Z,1008.94
2023-09-24T06:17:51.615Z,1008.94
2023-09-24T06:18:24.404Z,1008.94
2023-09-24T06:18:55.418Z,1008.94
2023-09-24T06:19:29.121Z,1009.04
2023-09-24T06:19:59.351Z,1009.04
2023-09-24T06:20:32.357Z,1008.94
2023-09-24T06:21:03.443Z,1008.94
2023-09-24T06:21:36.073Z,1008.94
2023-09-24T06:22:07.191Z,1008.94
2023-09-24T06:22:40.154Z,1008.84
2023-09-24T06:23:11.282Z,1009.04
2023-09-24T06:23:44.141Z,1009.04
2023-09-24T06:24:15.138Z,1008.94
2023-09-24T06:24:48.067Z,1008.94
2023-09-24T06:25:19.347Z,1009.04
2023-09-24T06:25:51.893Z,1009.04
2023-09-24T06:26:23.071Z,1009.04
2023-09-24T06:26:57.063Z,1009.04